Time,TemperatureF,DewpointF,PressureIn,WindDirection,WindDirectionDegrees,WindSpeedMPH,WindSpeedGustMPH,Humidity,HourlyPrecipIn,Conditions,Clouds,dailyrainin,SolarRadiationWatts/m^2,SoftwareType,DateUTC
2013-02-22 00:00:00,64.1,60.2,30.05,East,85,8.0,18.0,87,0.00,RA,SCT,0.00,0.0,WeatherDisplay:10.37,2013-02-22 10:00:00,
2013-02-22 00:10:00,64.1,59.8,30.05,East,88,7.0,21.0,86,0.00,BKN,SCT,0.00,0.0,WeatherDisplay:10.37,2013-02-22 10:10:00,
2013-02-22 00:20:00,64.1,59.5,30.05,East,94,7.0,16.0,85,0.00,BKN,SCT,0.00,0.0,WeatherDisplay:10.37,2013-02-22 10:20:00,
2013-02-22 00:30:00,64.5,59.9,30.06,East,90,12.0,17.0,85,0.00,BKN,SCT,0.00,0.0,WeatherDisplay:10.37,2013-02-22 10:30:00,
2013-02-22 00:40:00,64.4,60.1,30.06,ESE,107,7.0,20.0,86,0.00,BKN,SCT,0.00,0.0,WeatherDisplay:10.37,2013-02-22 10:40:00,
2013-02-22 00:50:00,64.2,60.2,30.06,East,88,6.0,13.0,87,0.00,BKN,SCT,0.00,0.0,WeatherDisplay:10.37,2013-02-22 10:50:00,
2013-02-22 01:00:00,64.0,60.1,30.05,East,82,6.0,14.0,87,0.00,BKN,SCT,0.00,0.0,WeatherDisplay:10.37,2013-02-22 11:00:00,
2013-02-22 01:10:00,64.1,60.2,30.05,ENE,65,7.0,14.0,87,0.00,OVC,SCT,0.00,0.0,WeatherDisplay:10.37,2013-02-22 11:10:00,
2013-02-22 01:20:00,63.9,59.6,30.05,East,81,12.0,18.0,86,0.00,OVC,SCT,0.00,0.0,WeatherDisplay:10.37,2013-02-22 11:20:00,
2013-02-22 01:30:00,63.9,60.0,30.05,East,87,7.0,16.0,87,0.00,OVC,SCT,0.00,0.0,WeatherDisplay:10.37,2013-02-22 11:30:00,
2013-02-22 01:40:00,63.7,60.4,30.05,ENE,64,3.0,17.0,89,0.00,OVC,SCT,0.00,0.0,WeatherDisplay:10.37,2013-02-22 11:40:00,
2013-02-22 01:50:00,63.5,59.9,30.05,ENE,72,2.0,8.0,88,0.00,OVC,SCT,0.00,0.0,WeatherDisplay:10.37,2013-02-22 11:50:00,
2013-02-22 02:00:00,63.5,59.9,30.04,ENE,76,6.0,11.0,88,0.00,OVC,SCT,0.00,0.0,WeatherDisplay:10.37,2013-02-22 12:00:00,
2013-02-22 02:10:00,63.6,60.0,30.04,East,85,6.0,13.0,88,0.00,BKN,SCT,0.00,0.0,WeatherDisplay:10.37,2013-02-22 12:10:00,
2013-02-22 02:20:00,63.7,60.1,30.03,East,85,3.0,16.0,88,0.01,RA,SCT,0.01,0.0,WeatherDisplay:10.37,2013-02-22 12:20:00,
2013-02-22 02:30:00,63.5,60.2,30.03,East,85,7.0,12.0,89,0.00,BKN,SCT,0.01,0.0,WeatherDisplay:10.37,2013-02-22 12:30:00,
2013-02-22 02:40:00,63.7,60.7,30.02,East,84,9.0,17.0,90,0.00,BKN,SCT,0.01,0.0,WeatherDisplay:10.37,2013-02-22 12:40:00,
2013-02-22 02:50:00,63.7,61.0,30.02,ENE,78,10.0,23.0,91,0.00,BKN,SCT,0.01,0.0,WeatherDisplay:10.37,2013-02-22 12:50:00,
2013-02-22 03:00:00,63.8,61.1,30.01,ENE,66,9.0,20.0,91,0.01,RA,SCT,0.02,0.0,WeatherDisplay:10.37,2013-02-22 13:00:00,
2013-02-22 03:10:00,63.6,60.9,30.02,ENE,77,8.0,15.0,91,0.00,BKN,SCT,0.02,0.0,WeatherDisplay:10.37,2013-02-22 13:10:00,
2013-02-22 03:20:00,63.5,60.5,30.01,East,80,8.0,16.0,90,0.00,BKN,SCT,0.02,0.0,WeatherDisplay:10.37,2013-02-22 13:20:00,
2013-02-22 03:30:00,63.4,60.8,30.01,East,79,8.0,15.0,91,0.00,BKN,SCT,0.02,0.0,WeatherDisplay:10.37,2013-02-22 13:30:00,
2013-02-22 03:40:00,63.4,60.7,30.01,ENE,76,9.0,16.0,91,0.00,BKN,SCT,0.02,0.0,WeatherDisplay:10.37,2013-02-22 13:40:00,
2013-02-22 03:50:00,63.4,60.7,30.00,ENE,72,6.0,17.0,91,0.00,BKN,SCT,0.02,0.0,WeatherDisplay:10.37,2013-02-22 13:50:00,
2013-02-22 04:00:00,63.6,60.6,30.00,East,96,7.0,29.0,90,0.01,RA,SCT,0.03,0.0,WeatherDisplay:10.37,2013-02-22 14:00:00,
2013-02-22 04:10:00,63.5,59.9,29.98,East,92,6.0,13.0,88,0.00,BKN,SCT,0.03,0.0,WeatherDisplay:10.37,2013-02-22 14:10:00,
2013-02-22 04:20:00,63.6,59.7,29.97,East,101,9.0,17.0,87,0.00,BKN,SCT,0.03,0.0,WeatherDisplay:10.37,2013-02-22 14:20:00,
2013-02-22 04:30:00,64.1,59.8,29.97,East,96,10.0,20.0,86,0.00,BKN,SCT,0.03,0.0,WeatherDisplay:10.37,2013-02-22 14:30:00,
2013-02-22 04:40:00,64.7,59.8,29.97,East,90,13.0,23.0,84,0.00,BKN,SCT,0.03,0.0,WeatherDisplay:10.37,2013-02-22 14:40:00,
2013-02-22 04:50:00,64.8,59.5,29.96,East,93,13.0,26.0,83,0.00,BKN,SCT,0.03,0.0,WeatherDisplay:10.37,2013-02-22 14:50:00,
2013-02-22 05:00:00,65.1,59.1,29.96,East,96,13.0,20.0,81,0.00,BKN,SCT,0.03,0.0,WeatherDisplay:10.37,2013-02-22 15:00:00,
2013-02-22 05:10:00,64.9,60.0,29.96,ESE,102,13.0,22.0,84,0.01,RA,SCT,0.04,0.0,WeatherDisplay:10.37,2013-02-22 15:10:00,
2013-02-22 05:20:00,64.2,60.2,29.96,East,88,12.0,26.0,87,0.00,OVC,SCT,0.04,0.0,WeatherDisplay:10.37,2013-02-22 15:20:00,
2013-02-22 05:30:00,64.2,59.9,29.97,East,97,8.0,21.0,86,0.00,OVC,SCT,0.04,0.0,WeatherDisplay:10.37,2013-02-22 15:30:00,
2013-02-22 05:40:00,64.5,59.6,29.97,East,81,6.0,23.0,84,0.00,OVC,SCT,0.04,0.0,WeatherDisplay:10.37,2013-02-22 15:40:00,
2013-02-22 05:50:00,64.6,59.3,29.98,ESE,102,6.0,14.0,83,0.00,OVC,SCT,0.04,0.0,WeatherDisplay:10.37,2013-02-22 15:50:00,
2013-02-22 06:00:00,64.8,59.8,29.99,East,91,9.0,20.0,84,0.00,OVC,SCT,0.04,0.0,WeatherDisplay:10.37,2013-02-22 16:00:00,
2013-02-22 06:10:00,64.4,59.8,30.00,ESE,111,8.0,17.0,85,0.00,OVC,SCT,0.04,0.0,WeatherDisplay:10.37,2013-02-22 16:10:00,
2013-02-22 06:20:00,64.3,60.0,30.00,ESE,107,3.0,12.0,86,0.00,CLR,SCT,0.04,0.0,WeatherDisplay:10.37,2013-02-22 16:20:00,
2013-02-22 06:30:00,64.2,59.6,30.00,ESE,103,5.0,13.0,85,0.00,CLR,SCT,0.04,0.0,WeatherDisplay:10.37,2013-02-22 16:30:00,
2013-02-22 06:40:00,64.2,59.6,30.01,East,83,5.0,10.0,85,0.00,CLR,SCT,0.04,0.0,WeatherDisplay:10.37,2013-02-22 16:40:00,
2013-02-22 06:50:00,64.3,59.7,30.01,ENE,72,7.0,20.0,85,0.00,CLR,SCT,0.04,0.0,WeatherDisplay:10.37,2013-02-22 16:50:00,
2013-02-22 07:00:00,63.9,60.3,30.02,ENE,71,5.0,15.0,88,0.00,CLR,SCT,0.04,3.7,WeatherDisplay:10.37,2013-02-22 17:00:00,
2013-02-22 07:10:00,63.6,60.3,30.02,East,89,8.0,21.0,89,0.00,CLR,SCT,0.04,6.3,WeatherDisplay:10.37,2013-02-22 17:10:00,
2013-02-22 07:20:00,63.7,60.4,30.01,East,99,9.0,21.0,89,0.00,CLR,SCT,0.04,15.3,WeatherDisplay:10.37,2013-02-22 17:20:00,
2013-02-22 07:30:00,63.7,60.4,30.01,ESE,102,8.0,20.0,89,0.01,RA,SCT,0.05,35.9,WeatherDisplay:10.37,2013-02-22 17:30:00,
2013-02-22 07:40:00,64.1,60.4,30.02,East,93,8.0,14.0,88,0.00,CLR,SCT,0.05,41.1,WeatherDisplay:10.37,2013-02-22 17:40:00,
2013-02-22 07:50:00,64.4,60.8,30.02,East,81,7.0,16.0,88,0.00,CLR,SCT,0.05,44.8,WeatherDisplay:10.37,2013-02-22 17:50:00,
2013-02-22 08:00:00,64.3,61.3,30.02,ENE,76,9.0,20.0,90,0.00,CLR,SCT,0.05,44.8,WeatherDisplay:10.37,2013-02-22 18:00:00,
2013-02-22 08:10:00,64.4,61.4,30.02,East,81,8.0,20.0,90,0.01,RA,SCT,0.06,93.9,WeatherDisplay:10.37,2013-02-22 18:10:00,
2013-02-22 08:20:00,64.9,61.5,30.01,ENE,74,8.0,17.0,89,0.00,SCT,SCT,0.06,362.9,WeatherDisplay:10.37,2013-02-22 18:20:00,
2013-02-22 08:30:00,66.2,62.2,30.03,ENE,73,7.0,17.0,87,0.00,SCT,SCT,0.06,319.1,WeatherDisplay:10.37,2013-02-22 18:30:00,
2013-02-22 08:40:00,67.3,62.6,30.04,ESE,104,9.0,14.0,85,0.00,SCT,SCT,0.06,100.2,WeatherDisplay:10.37,2013-02-22 18:40:00,
2013-02-22 08:50:00,66.2,61.9,30.04,East,82,10.0,20.0,86,0.00,SCT,SCT,0.06,72.3,WeatherDisplay:10.37,2013-02-22 18:50:00,
2013-02-22 09:00:00,65.3,61.0,30.04,ENE,74,7.0,24.0,86,0.00,SCT,SCT,0.06,84.9,WeatherDisplay:10.37,2013-02-22 19:00:00,
2013-02-22 09:10:00,65.7,62.1,30.05,ENE,77,7.0,17.0,88,0.01,RA,SCT,0.07,158.3,WeatherDisplay:10.37,2013-02-22 19:10:00,
2013-02-22 09:20:00,66.4,62.7,30.06,East,96,9.0,22.0,88,0.00,SCT,SCT,0.07,207.3,WeatherDisplay:10.37,2013-02-22 19:20:00,
2013-02-22 09:30:00,66.5,62.8,30.06,East,87,7.0,16.0,88,0.00,SCT,SCT,0.07,201.0,WeatherDisplay:10.37,2013-02-22 19:30:00,
2013-02-22 09:40:00,66.6,62.6,30.07,East,97,9.0,18.0,87,0.00,SCT,SCT,0.07,172.5,WeatherDisplay:10.37,2013-02-22 19:40:00,
2013-02-22 09:50:00,66.5,63.8,30.06,ENE,70,5.0,16.0,91,0.02,-RA,SCT,0.09,278.0,WeatherDisplay:10.37,2013-02-22 19:50:00,
2013-02-22 10:00:00,65.9,62.9,30.06,ENE,77,9.0,22.0,90,0.04,-RA,SCT,0.13,149.3,WeatherDisplay:10.37,2013-02-22 20:00:00,
2013-02-22 10:10:00,65.3,62.3,30.05,East,80,10.0,21.0,90,0.02,-RA,SCT,0.15,184.1,WeatherDisplay:10.37,2013-02-22 20:10:00,
2013-02-22 10:20:00,65.2,62.5,30.05,East,81,9.0,21.0,91,0.01,RA,SCT,0.16,183.0,WeatherDisplay:10.37,2013-02-22 20:20:00,
2013-02-22 10:30:00,65.1,62.4,30.05,East,84,9.0,20.0,91,0.00,SCT,SCT,0.16,172.5,WeatherDisplay:10.37,2013-02-22 20:30:00,
2013-02-22 10:40:00,65.3,62.9,30.04,East,90,14.0,22.0,92,0.04,RA,SCT,0.20,169.9,WeatherDisplay:10.37,2013-02-22 20:40:00,
2013-02-22 10:50:00,64.8,62.1,30.04,East,83,9.0,24.0,91,0.07,RA,SCT,0.27,187.8,WeatherDisplay:10.37,2013-02-22 20:50:00,
2013-02-22 11:00:00,64.6,62.2,30.05,East,79,6.0,20.0,92,0.02,RA,SCT,0.29,136.6,WeatherDisplay:10.37,2013-02-22 21:00:00,
2013-02-22 11:10:00,64.5,62.4,30.06,East,85,10.0,17.0,93,0.06,RA,SCT,0.35,126.1,WeatherDisplay:10.37,2013-02-22 21:10:00,
2013-02-22 11:20:00,64.5,62.4,30.05,ENE,75,14.0,23.0,93,0.02,RA,SCT,0.37,150.9,WeatherDisplay:10.37,2013-02-22 21:20:00,
2013-02-22 11:30:00,64.3,61.9,30.05,East,80,12.0,22.0,92,0.04,RA,SCT,0.41,199.4,WeatherDisplay:10.37,2013-02-22 21:30:00,
2013-02-22 11:40:00,64.5,62.4,30.05,East,82,9.0,17.0,93,0.01,RA,SCT,0.42,88.6,WeatherDisplay:10.37,2013-02-22 21:40:00,
2013-02-22 11:50:00,64.3,62.3,30.04,East,89,8.0,18.0,93,0.05,RA,SCT,0.47,92.8,WeatherDisplay:10.37,2013-02-22 21:50:00,
2013-02-22 12:00:00,64.2,62.1,30.04,East,83,12.0,18.0,93,0.12,RA,SCT,0.60,82.3,WeatherDisplay:10.37,2013-02-22 22:00:00,
2013-02-22 12:10:00,64.2,62.4,30.03,East,79,8.0,17.0,94,0.06,RA,SCT,0.65,61.7,WeatherDisplay:10.37,2013-02-22 22:10:00,
2013-02-22 12:20:00,64.2,62.4,30.02,ENE,76,14.0,20.0,94,0.04,RA,SCT,0.69,137.7,WeatherDisplay:10.37,2013-02-22 22:20:00,
2013-02-22 12:30:00,63.8,60.8,30.02,ENE,77,10.0,20.0,90,0.02,RA,SCT,0.71,135.0,WeatherDisplay:10.37,2013-02-22 22:30:00,
2013-02-22 12:40:00,63.5,60.8,30.01,East,87,14.0,26.0,91,0.02,RA,SCT,0.73,118.7,WeatherDisplay:10.37,2013-02-22 22:40:00,
2013-02-22 12:50:00,63.6,60.6,30.00,East,85,12.0,21.0,90,0.01,RA,SCT,0.74,118.7,WeatherDisplay:10.37,2013-02-22 22:50:00,
2013-02-22 13:00:00,63.8,61.1,30.00,East,85,10.0,25.0,91,0.01,RA,SCT,0.75,113.4,WeatherDisplay:10.37,2013-02-22 23:00:00,
2013-02-22 13:10:00,63.6,60.6,30.00,East,98,16.0,25.0,90,0.05,RA,SCT,0.80,113.4,WeatherDisplay:10.37,2013-02-22 23:10:00,
2013-02-22 13:20:00,63.8,61.4,30.00,East,85,12.0,26.0,92,0.03,RA,SCT,0.83,123.4,WeatherDisplay:10.37,2013-02-22 23:20:00,
2013-02-22 13:30:00,64.1,61.7,29.99,ENE,75,8.0,20.0,92,0.02,RA,SCT,0.85,164.6,WeatherDisplay:10.37,2013-02-22 23:30:00,
2013-02-22 13:40:00,64.3,62.2,29.99,ENE,67,9.0,16.0,93,0.01,RA,SCT,0.86,194.6,WeatherDisplay:10.37,2013-02-22 23:40:00,
2013-02-22 13:50:00,64.6,62.5,29.99,NE,56,8.0,16.0,93,0.00,BKN,SCT,0.86,136.6,WeatherDisplay:10.37,2013-02-22 23:50:00,
2013-02-22 14:00:00,64.7,62.6,29.99,ENE,69,14.0,22.0,93,0.00,BKN,SCT,0.86,189.4,WeatherDisplay:10.37,2013-02-23 00:00:00,
2013-02-22 14:10:00,64.8,62.1,29.97,ENE,57,12.0,26.0,91,0.00,SCT,SCT,0.86,184.1,WeatherDisplay:10.37,2013-02-23 00:10:00,
2013-02-22 14:20:00,65.1,62.1,29.96,NE,46,12.0,23.0,90,0.00,SCT,SCT,0.86,160.9,WeatherDisplay:10.37,2013-02-23 00:20:00,
2013-02-22 14:30:00,65.1,62.0,29.96,NE,52,12.0,23.0,90,0.00,SCT,SCT,0.86,181.5,WeatherDisplay:10.37,2013-02-23 00:30:00,
2013-02-22 14:40:00,65.2,61.6,29.97,ENE,65,15.0,24.0,88,0.00,SCT,SCT,0.86,476.3,WeatherDisplay:10.37,2013-02-23 00:40:00,
2013-02-22 14:50:00,67.4,63.7,29.97,ENE,74,14.0,23.0,88,0.00,SCT,SCT,0.86,463.7,WeatherDisplay:10.37,2013-02-23 00:50:00,
2013-02-22 15:00:00,68.5,62.8,29.97,East,90,10.0,20.0,82,0.00,SCT,SCT,0.86,99.2,WeatherDisplay:10.37,2013-02-23 01:00:00,
2013-02-22 15:10:00,68.5,63.1,29.97,East,83,10.0,21.0,83,0.00,SCT,SCT,0.86,417.3,WeatherDisplay:10.37,2013-02-23 01:10:00,
2013-02-22 15:20:00,69.7,62.9,29.97,East,83,8.0,21.0,79,0.00,SCT,SCT,0.86,74.9,WeatherDisplay:10.37,2013-02-23 01:20:00,
2013-02-22 15:30:00,69.0,62.2,29.97,East,89,12.0,20.0,79,0.00,SCT,SCT,0.86,376.1,WeatherDisplay:10.37,2013-02-23 01:30:00,
2013-02-22 15:40:00,70.6,63.1,29.96,ENE,75,10.0,20.0,77,0.00,SCT,SCT,0.86,370.8,WeatherDisplay:10.37,2013-02-23 01:40:00,
2013-02-22 15:50:00,71.7,63.8,29.96,ENE,73,9.0,17.0,76,0.00,SCT,SCT,0.86,409.3,WeatherDisplay:10.37,2013-02-23 01:50:00,
2013-02-22 16:00:00,71.9,63.9,29.96,ENE,71,13.0,20.0,76,0.00,SCT,SCT,0.86,476.3,WeatherDisplay:10.37,2013-02-23 02:00:00,
2013-02-22 16:10:00,71.7,64.1,29.97,East,79,8.0,20.0,77,0.00,SCT,SCT,0.86,490.6,WeatherDisplay:10.37,2013-02-23 02:10:00,
2013-02-22 16:20:00,70.5,64.0,29.97,ENE,75,12.0,20.0,80,0.00,SCT,SCT,0.86,450.5,WeatherDisplay:10.37,2013-02-23 02:20:00,
2013-02-22 16:30:00,69.5,64.1,29.97,ENE,74,9.0,18.0,83,0.01,RA,SCT,0.87,418.3,WeatherDisplay:10.37,2013-02-23 02:30:00,
2013-02-22 16:40:00,69.3,63.6,29.97,ENE,78,8.0,16.0,82,0.00,SCT,SCT,0.87,450.5,WeatherDisplay:10.37,2013-02-23 02:40:00,
2013-02-22 16:50:00,68.6,62.6,29.97,ENE,78,12.0,20.0,81,0.00,SCT,SCT,0.87,150.9,WeatherDisplay:10.37,2013-02-23 02:50:00,
2013-02-22 17:00:00,67.4,62.1,29.97,East,80,8.0,17.0,83,0.00,SCT,SCT,0.87,440.5,WeatherDisplay:10.37,2013-02-23 03:00:00,
2013-02-22 17:10:00,67.1,62.1,29.97,ENE,60,7.0,15.0,84,0.00,SCT,SCT,0.87,119.7,WeatherDisplay:10.37,2013-02-23 03:10:00,
2013-02-22 17:20:00,66.9,61.6,29.99,ENE,74,7.0,16.0,83,0.00,SCT,SCT,0.87,164.6,WeatherDisplay:10.37,2013-02-23 03:20:00,
2013-02-22 17:30:00,67.1,61.8,29.98,ENE,70,8.0,21.0,83,0.00,SCT,SCT,0.87,283.3,WeatherDisplay:10.37,2013-02-23 03:30:00,
2013-02-22 17:40:00,67.1,61.8,29.98,East,81,9.0,20.0,83,0.00,SCT,SCT,0.87,298.6,WeatherDisplay:10.37,2013-02-23 03:40:00,
2013-02-22 17:50:00,67.4,61.0,29.99,East,86,9.0,20.0,80,0.00,SCT,SCT,0.87,107.1,WeatherDisplay:10.37,2013-02-23 03:50:00,
2013-02-22 18:00:00,67.4,61.7,29.99,East,91,8.0,17.0,82,0.00,SCT,SCT,0.87,213.6,WeatherDisplay:10.37,2013-02-23 04:00:00,
2013-02-22 18:10:00,66.7,61.0,30.00,East,81,10.0,21.0,82,0.00,SCT,SCT,0.87,136.6,WeatherDisplay:10.37,2013-02-23 04:10:00,
2013-02-22 18:20:00,65.9,61.0,30.01,East,81,5.0,15.0,84,0.00,SCT,SCT,0.87,25.8,WeatherDisplay:10.37,2013-02-23 04:20:00,
2013-02-22 18:30:00,65.2,60.2,30.00,East,87,8.0,14.0,84,0.00,SCT,SCT,0.87,0.0,WeatherDisplay:10.37,2013-02-23 04:30:00,
2013-02-22 18:40:00,64.8,59.9,30.00,East,87,9.0,21.0,84,0.00,SCT,SCT,0.87,0.0,WeatherDisplay:10.37,2013-02-23 04:40:00,
2013-02-22 18:50:00,64.5,59.9,30.01,East,97,14.0,17.0,85,0.00,SCT,SCT,0.87,0.0,WeatherDisplay:10.37,2013-02-23 04:50:00,
2013-02-22 19:00:00,64.0,60.1,30.02,East,89,8.0,13.0,87,0.01,RA,SCT,0.88,0.0,WeatherDisplay:10.37,2013-02-23 05:00:00,
2013-02-22 19:10:00,63.8,60.2,30.01,East,84,9.0,20.0,88,0.01,RA,SCT,0.89,0.0,WeatherDisplay:10.37,2013-02-23 05:10:00,
2013-02-22 19:20:00,64.0,61.0,30.02,East,79,6.0,17.0,90,0.00,BKN,SCT,0.89,0.0,WeatherDisplay:10.37,2013-02-23 05:20:00,
2013-02-22 19:30:00,64.0,61.6,30.02,ENE,68,6.0,12.0,92,0.02,RA,SCT,0.91,0.0,WeatherDisplay:10.37,2013-02-23 05:30:00,
2013-02-22 19:40:00,63.9,61.8,30.02,East,82,12.0,15.0,93,0.00,BKN,SCT,0.91,0.0,WeatherDisplay:10.37,2013-02-23 05:40:00,
2013-02-22 19:50:00,63.8,61.4,30.03,East,87,7.0,20.0,92,0.01,RA,SCT,0.92,0.0,WeatherDisplay:10.37,2013-02-23 05:50:00,
2013-02-22 20:00:00,63.8,61.4,30.03,East,84,9.0,20.0,92,0.00,BKN,SCT,0.92,0.0,WeatherDisplay:10.37,2013-02-23 06:00:00,
2013-02-22 20:10:00,63.9,61.2,30.03,ENE,78,12.0,20.0,91,0.00,BKN,SCT,0.92,0.0,WeatherDisplay:10.37,2013-02-23 06:10:00,
2013-02-22 20:20:00,63.8,61.7,30.03,East,80,9.0,17.0,93,0.03,RA,SCT,0.95,0.0,WeatherDisplay:10.37,2013-02-23 06:20:00,
2013-02-22 20:30:00,63.6,60.6,30.02,East,81,9.0,18.0,90,0.01,RA,SCT,0.96,0.0,WeatherDisplay:10.37,2013-02-23 06:30:00,
2013-02-22 20:40:00,63.7,59.1,30.02,East,89,17.0,29.0,85,0.00,BKN,SCT,0.96,0.0,WeatherDisplay:10.37,2013-02-23 06:40:00,
2013-02-22 20:50:00,63.4,57.1,30.02,East,80,14.0,26.0,80,0.00,BKN,SCT,0.96,0.0,WeatherDisplay:10.37,2013-02-23 06:50:00,
2013-02-22 21:00:00,62.9,58.0,30.02,East,79,14.0,24.0,84,0.00,BKN,SCT,0.96,0.0,WeatherDisplay:10.37,2013-02-23 07:00:00,
2013-02-22 21:10:00,62.8,58.2,30.03,East,92,14.0,29.0,85,0.00,BKN,SCT,0.96,0.0,WeatherDisplay:10.37,2013-02-23 07:10:00,
2013-02-22 21:20:00,62.9,58.0,30.02,East,95,14.0,27.0,84,0.00,SCT,SCT,0.96,0.0,WeatherDisplay:10.37,2013-02-23 07:20:00,
2013-02-22 21:30:00,63.7,58.4,30.03,East,95,13.0,23.0,83,0.00,SCT,SCT,0.96,0.0,WeatherDisplay:10.37,2013-02-23 07:30:00,
2013-02-22 21:40:00,64.0,58.7,30.03,East,93,12.0,22.0,83,0.00,SCT,SCT,0.96,0.0,WeatherDisplay:10.37,2013-02-23 07:40:00,
2013-02-22 21:50:00,64.2,59.3,30.03,East,86,13.0,24.0,84,0.00,SCT,SCT,0.96,0.0,WeatherDisplay:10.37,2013-02-23 07:50:00,
2013-02-22 22:00:00,64.3,59.0,30.03,East,86,15.0,21.0,83,0.00,SCT,SCT,0.96,0.0,WeatherDisplay:10.37,2013-02-23 08:00:00,
2013-02-22 22:10:00,64.4,59.4,30.04,ENE,74,9.0,21.0,84,0.00,BKN,SCT,0.96,0.0,WeatherDisplay:10.37,2013-02-23 08:10:00,
2013-02-22 22:20:00,64.4,59.1,30.04,East,93,8.0,21.0,83,0.00,BKN,SCT,0.96,0.0,WeatherDisplay:10.37,2013-02-23 08:20:00,
2013-02-22 22:30:00,64.1,58.8,30.05,East,87,12.0,17.0,83,0.00,BKN,SCT,0.96,0.0,WeatherDisplay:10.37,2013-02-23 08:30:00,
2013-02-22 22:40:00,64.1,59.1,30.05,East,98,5.0,12.0,84,0.00,BKN,SCT,0.96,0.0,WeatherDisplay:10.37,2013-02-23 08:40:00,
2013-02-22 22:50:00,63.8,58.9,30.04,East,84,3.0,10.0,84,0.00,BKN,SCT,0.96,0.0,WeatherDisplay:10.37,2013-02-23 08:50:00,
2013-02-22 23:00:00,63.4,59.1,30.04,ENE,78,7.0,13.0,86,0.00,BKN,SCT,0.96,0.0,WeatherDisplay:10.37,2013-02-23 09:00:00,
2013-02-22 23:10:00,63.2,58.6,30.03,East,87,15.0,20.0,85,0.01,RA,SCT,0.97,0.0,WeatherDisplay:10.37,2013-02-23 09:10:00,
2013-02-22 23:20:00,62.9,58.0,30.03,East,81,10.0,23.0,84,0.03,RA,SCT,1.00,0.0,WeatherDisplay:10.37,2013-02-23 09:20:00,
2013-02-22 23:30:00,62.3,58.0,30.02,East,96,9.0,16.0,86,0.03,RA,SCT,1.03,0.0,WeatherDisplay:10.37,2013-02-23 09:30:00,
2013-02-22 23:40:00,62.6,58.7,30.03,East,84,10.0,19.0,87,0.01,RA,SCT,1.04,0.0,WeatherDisplay:10.37,2013-02-23 09:40:00,
2013-02-22 23:50:00,62.6,59.3,30.04,East,90,12.0,18.0,89,0.06,RA,SCT,1.11,0.0,WeatherDisplay:10.37,2013-02-23 09:50:00,